createdAt,value
2018-06-10T00:00:51.630Z,21.2
2018-06-10T00:01:53.615Z,21.1
2018-06-10T00:02:55.597Z,21.1
2018-06-10T00:03:57.579Z,21.1
2018-06-10T00:04:59.583Z,21.1
2018-06-10T00:06:01.586Z,21
2018-06-10T00:07:03.579Z,21
2018-06-10T00:08:05.599Z,20.8
2018-06-10T00:09:07.605Z,20.7
2018-06-10T00:10:09.613Z,20.7
2018-06-10T00:11:11.897Z,20.7
2018-06-10T00:12:13.894Z,20.7
2018-06-10T00:13:15.907Z,20.7
2018-06-10T00:14:17.910Z,20.7
2018-06-10T00:15:20.573Z,20.8
2018-06-10T00:16:22.580Z,20.8
2018-06-10T00:17:24.581Z,20.8
2018-06-10T00:18:26.593Z,20.8
2018-06-10T00:19:28.596Z,20.9
2018-06-10T00:20:30.873Z,20.9
2018-06-10T00:21:32.884Z,20.9
2018-06-10T00:22:34.950Z,20.9
2018-06-10T00:23:36.951Z,20.8
2018-06-10T00:24:38.955Z,20.7
2018-06-10T00:25:40.965Z,20.6
2018-06-10T00:26:42.962Z,20.5
2018-06-10T00:27:45.014Z,20.5
2018-06-10T00:28:47.611Z,20.3
2018-06-10T00:29:49.676Z,20.3
2018-06-10T00:30:51.673Z,20.3
2018-06-10T00:31:53.679Z,20.2
2018-06-10T00:32:55.983Z,20.2
2018-06-10T00:33:57.979Z,20.3
2018-06-10T00:34:59.979Z,20.2
2018-06-10T00:36:02.073Z,20.3
2018-06-10T00:37:04.083Z,20.3
2018-06-10T00:38:06.476Z,20.3
2018-06-10T00:39:08.471Z,20.3
2018-06-10T00:40:10.480Z,20.3
2018-06-10T00:41:12.478Z,20.3
2018-06-10T00:42:14.534Z,20.4
2018-06-10T00:43:16.548Z,20.4
2018-06-10T00:44:18.553Z,20.3
2018-06-10T00:45:20.562Z,20.2
2018-06-10T00:46:22.563Z,20.2
2018-06-10T00:47:24.629Z,20.2
2018-06-10T00:48:26.647Z,20.1
2018-06-10T00:49:28.924Z,20.1
2018-06-10T00:50:31.319Z,20.1
2018-06-10T00:51:33.320Z,20.1
2018-06-10T00:52:35.603Z,20.1
2018-06-10T00:53:37.953Z,20.1
2018-06-10T00:54:40.243Z,20
2018-06-10T00:55:42.229Z,20
2018-06-10T00:56:44.518Z,20
2018-06-10T00:57:46.527Z,19.9
2018-06-10T00:58:48.534Z,19.5
2018-06-10T00:59:50.543Z,19.4
2018-06-10T01:00:53.251Z,19.6
2018-06-10T01:01:55.268Z,19.7
2018-06-10T01:02:57.262Z,19.7
2018-06-10T01:03:59.261Z,19.7
2018-06-10T01:05:01.346Z,19.7
2018-06-10T01:06:03.351Z,19.7
2018-06-10T01:07:05.350Z,19.7
2018-06-10T01:08:07.358Z,19.8
2018-06-10T01:09:09.357Z,19.7
2018-06-10T01:10:11.705Z,19.8
2018-06-10T01:11:13.698Z,19.7
2018-06-10T01:12:15.725Z,19.7
2018-06-10T01:13:17.723Z,19.8
2018-06-10T01:14:20.004Z,19.7
2018-06-10T01:15:22.011Z,19.5
2018-06-10T01:16:24.084Z,19.4
2018-06-10T01:17:26.090Z,19.4
2018-06-10T01:18:28.090Z,19.5
2018-06-10T01:19:30.095Z,19.5
2018-06-10T01:20:32.113Z,19.5
2018-06-10T01:21:34.379Z,19.4
2018-06-10T01:22:36.388Z,19.4
2018-06-10T01:23:38.397Z,19.4
2018-06-10T01:24:40.963Z,19.3
2018-06-10T01:25:42.967Z,19.3
2018-06-10T01:26:45.253Z,19.2
2018-06-10T01:27:47.386Z,19.2
2018-06-10T01:28:49.399Z,19.1
2018-06-10T01:29:51.400Z,19.1
2018-06-10T01:30:53.402Z,19.1
2018-06-10T01:31:55.406Z,19.1
2018-06-10T01:32:57.403Z,19.2
2018-06-10T01:33:59.402Z,19.2
2018-06-10T01:35:01.406Z,19.2
2018-06-10T01:36:03.424Z,19.2
2018-06-10T01:37:05.709Z,19.3
2018-06-10T01:38:07.701Z,19.3
2018-06-10T01:39:09.711Z,19.2
2018-06-10T01:40:11.717Z,19.2
2018-06-10T01:41:13.714Z,19.1
2018-06-10T01:42:15.717Z,19
2018-06-10T01:43:18.013Z,18.9
2018-06-10T01:44:20.018Z,19
2018-06-10T01:45:22.005Z,18.9
2018-06-10T01:46:24.005Z,19
2018-06-10T01:47:26.007Z,19
2018-06-10T01:48:28.322Z,18.9
2018-06-10T01:49:30.321Z,18.9
2018-06-10T01:50:32.317Z,18.9
2018-06-10T01:51:34.325Z,18.8
2018-06-10T01:52:36.716Z,18.8
2018-06-10T01:53:38.719Z,18.8
2018-06-10T01:54:40.737Z,18.8
2018-06-10T01:55:42.732Z,18.7
2018-06-10T01:56:45.010Z,18.7
2018-06-10T01:57:47.012Z,18.7
2018-06-10T01:58:49.408Z,18.8
2018-06-10T01:59:51.794Z,18.8
2018-06-10T02:00:53.791Z,18.8
2018-06-10T02:01:55.798Z,18.8
2018-06-10T02:02:58.078Z,18.9
2018-06-10T02:04:00.080Z,18.8
2018-06-10T02:05:02.778Z,18.8
2018-06-10T02:06:04.782Z,18.8
2018-06-10T02:07:06.798Z,18.8
2018-06-10T02:08:09.079Z,18.8
2018-06-10T02:09:14.124Z,18.8
2018-06-10T02:10:16.165Z,18.9
2018-06-10T02:11:18.204Z,18.9
2018-06-10T02:12:20.839Z,18.8
2018-06-10T02:13:22.878Z,18.7
2018-06-10T02:14:24.940Z,18.7
2018-06-10T02:15:26.972Z,18.7
2018-06-10T02:16:29.024Z,18.7
2018-06-10T02:17:31.072Z,18.8
2018-06-10T02:18:33.110Z,18.8
2018-06-10T02:19:35.163Z,18.8
2018-06-10T02:20:37.213Z,18.9
2018-06-10T02:21:39.260Z,18.9
2018-06-10T02:22:41.309Z,18.9
2018-06-10T02:23:43.353Z,18.9
2018-06-10T02:24:45.403Z,18.8
2018-06-10T02:25:47.439Z,18.9
2018-06-10T02:26:49.487Z,18.9
2018-06-10T02:27:51.550Z,18.9
2018-06-10T02:28:53.594Z,19
2018-06-10T02:29:55.906Z,19
2018-06-10T02:30:57.948Z,19
2018-06-10T02:32:00.382Z,19
2018-06-10T02:33:02.747Z,19
2018-06-10T02:34:05.075Z,19
2018-06-10T02:35:07.425Z,18.9
2018-06-10T02:36:09.485Z,18.9
2018-06-10T02:37:11.800Z,19
2018-06-10T02:38:13.848Z,19
2018-06-10T02:39:15.894Z,19
2018-06-10T02:40:18.505Z,19
2018-06-10T02:41:20.553Z,19
2018-06-10T02:42:22.590Z,19
2018-06-10T02:43:24.613Z,19.1
2018-06-10T02:44:26.886Z,19.1
2018-06-10T02:45:28.891Z,19.1
2018-06-10T02:46:30.892Z,19.1
2018-06-10T02:47:32.889Z,19.1
2018-06-10T02:48:34.898Z,19.1
2018-06-10T02:49:37.182Z,19.1
2018-06-10T02:50:39.856Z,19.1
2018-06-10T02:51:41.853Z,19.1
2018-06-10T02:52:43.857Z,19
2018-06-10T02:53:46.430Z,19.1
2018-06-10T02:54:48.426Z,19
2018-06-10T02:55:50.438Z,19
2018-06-10T02:56:52.444Z,19
2018-06-10T02:57:54.760Z,19
2018-06-10T02:58:57.058Z,19
2018-06-10T02:59:59.612Z,19.1
2018-06-10T03:01:01.897Z,19.1
2018-06-10T03:02:03.912Z,19.1
2018-06-10T03:03:06.203Z,19.1
2018-06-10T03:04:08.987Z,19.1
2018-06-10T03:05:11.272Z,19
2018-06-10T03:06:13.279Z,18.9
2018-06-10T03:07:15.943Z,18.9
2018-06-10T03:08:17.941Z,18.9
2018-06-10T03:09:20.237Z,18.9
2018-06-10T03:10:22.240Z,18.9
2018-06-10T03:11:24.252Z,18.9
2018-06-10T03:12:26.258Z,18.9
2018-06-10T03:13:28.260Z,18.9
2018-06-10T03:14:30.643Z,18.9
2018-06-10T03:15:32.645Z,18.9
2018-06-10T03:16:34.649Z,18.9
2018-06-10T03:17:37.327Z,18.9
2018-06-10T03:18:39.329Z,18.8
2018-06-10T03:19:41.327Z,18.9
2018-06-10T03:20:43.338Z,18.9
2018-06-10T03:21:45.339Z,18.9
2018-06-10T03:22:47.353Z,19
2018-06-10T03:23:49.359Z,19
2018-06-10T03:24:51.568Z,19
2018-06-10T03:25:53.573Z,19
2018-06-10T03:26:55.580Z,19
2018-06-10T03:27:57.584Z,19
2018-06-10T03:28:59.577Z,19
2018-06-10T03:30:01.583Z,19.1
2018-06-10T03:31:03.900Z,19.1
2018-06-10T03:32:06.553Z,19.2
2018-06-10T03:33:08.838Z,19.1
2018-06-10T03:34:10.851Z,19.1
2018-06-10T03:35:12.855Z,19.1
2018-06-10T03:36:14.862Z,19.2
2018-06-10T03:37:17.245Z,19.2
2018-06-10T03:38:19.840Z,19.3
2018-06-10T03:39:22.152Z,19.2
2018-06-10T03:40:24.429Z,19.2
2018-06-10T03:41:26.434Z,19.2
2018-06-10T03:42:28.443Z,19.2
2018-06-10T03:43:30.432Z,19.3
2018-06-10T03:44:32.436Z,19.3
2018-06-10T03:45:34.440Z,19.3
2018-06-10T03:46:36.443Z,19.2
2018-06-10T03:47:38.451Z,19.2
2018-06-10T03:48:40.451Z,19.2
2018-06-10T03:49:42.459Z,19.1
2018-06-10T03:50:44.464Z,19.1
2018-06-10T03:51:46.456Z,19.2
2018-06-10T03:52:48.471Z,19.1
2018-06-10T03:53:50.520Z,19.1
2018-06-10T03:54:52.573Z,19.1
2018-06-10T03:55:54.613Z,19.1
2018-06-10T03:56:56.658Z,19.2
2018-06-10T03:57:58.692Z,19.2
2018-06-10T03:59:00.736Z,19.3
2018-06-10T04:00:02.745Z,19.2
2018-06-10T04:01:05.030Z,19.2
2018-06-10T04:02:07.333Z,19.2
2018-06-10T04:03:09.343Z,19.4
2018-06-10T04:04:11.630Z,19.3
2018-06-10T04:05:13.638Z,19.3
2018-06-10T04:06:15.645Z,19.4
2018-06-10T04:07:18.046Z,19.4
2018-06-10T04:08:20.038Z,19.4
2018-06-10T04:09:22.326Z,19.5
2018-06-10T04:10:24.326Z,19.5
2018-06-10T04:11:26.341Z,19.6
2018-06-10T04:12:28.334Z,19.6
2018-06-10T04:13:30.334Z,19.6
2018-06-10T04:14:32.348Z,19.6
2018-06-10T04:15:34.348Z,19.7
2018-06-10T04:16:36.346Z,19.6
2018-06-10T04:17:38.357Z,19.7
2018-06-10T04:18:40.362Z,19.7
2018-06-10T04:19:42.376Z,19.8
2018-06-10T04:20:44.668Z,19.8
2018-06-10T04:21:47.348Z,19.8
2018-06-10T04:22:49.357Z,19.8
2018-06-10T04:23:51.637Z,19.9
2018-06-10T04:24:54.074Z,19.9
2018-06-10T04:25:56.386Z,20
2018-06-10T04:26:58.386Z,20
2018-06-10T04:28:00.417Z,19.9
2018-06-10T04:29:02.435Z,19.9
2018-06-10T04:30:05.405Z,19.9
2018-06-10T04:31:07.827Z,19.9
2018-06-10T04:32:10.159Z,19.9
2018-06-10T04:33:12.206Z,19.9
2018-06-10T04:34:14.243Z,19.8
2018-06-10T04:35:16.289Z,19.9
2018-06-10T04:36:18.332Z,20
2018-06-10T04:37:20.386Z,20.1
2018-06-10T04:38:22.426Z,20.1
2018-06-10T04:39:24.487Z,20.1
2018-06-10T04:40:26.527Z,20.1
2018-06-10T04:41:28.577Z,20
2018-06-10T04:42:31.194Z,20
2018-06-10T04:43:33.547Z,20
2018-06-10T04:44:36.268Z,20
2018-06-10T04:45:38.311Z,20
2018-06-10T04:46:40.361Z,20.1
2018-06-10T04:47:42.403Z,20.1
2018-06-10T04:48:44.443Z,20.1
2018-06-10T04:49:46.777Z,20.1
2018-06-10T04:50:48.821Z,20.1
2018-06-10T04:51:50.876Z,20.1
2018-06-10T04:52:52.919Z,20.1
2018-06-10T04:53:54.973Z,20.2
2018-06-10T04:54:57.027Z,20.3
2018-06-10T04:55:59.073Z,20.3
2018-06-10T04:57:01.115Z,20.3
2018-06-10T04:58:03.162Z,20.3
2018-06-10T04:59:05.203Z,20.3
2018-06-10T05:00:07.249Z,20.3
2018-06-10T05:01:09.583Z,20.4
2018-06-10T05:02:11.637Z,20.4
2018-06-10T05:03:13.964Z,20.5
2018-06-10T05:04:16.013Z,20.5
2018-06-10T05:05:18.350Z,20.5
2018-06-10T05:06:20.364Z,20.5
2018-06-10T05:07:22.360Z,20.5
2018-06-10T05:08:24.697Z,20.4
2018-06-10T05:09:56.814Z,20.5
2018-06-10T05:10:58.857Z,20.6
2018-06-10T05:12:01.522Z,20.6
2018-06-10T05:13:03.836Z,20.6
2018-06-10T05:14:05.848Z,20.7
2018-06-10T05:15:08.134Z,20.7
2018-06-10T05:16:10.144Z,20.7
2018-06-10T05:17:12.151Z,20.8
2018-06-10T05:18:14.152Z,20.8
2018-06-10T05:19:16.175Z,20.9
2018-06-10T05:20:18.185Z,20.9
2018-06-10T05:21:20.191Z,21
2018-06-10T05:22:22.581Z,21
2018-06-10T05:23:24.581Z,21
2018-06-10T05:24:26.968Z,21.1
2018-06-10T05:25:28.985Z,21.2
2018-06-10T05:26:31.365Z,21.2
2018-06-10T05:27:33.386Z,21.2
2018-06-10T05:28:35.669Z,21.3
2018-06-10T05:29:37.950Z,21.3
2018-06-10T05:30:39.959Z,21.3
2018-06-10T05:31:41.963Z,21.3
2018-06-10T05:32:43.972Z,21.4
2018-06-10T05:33:45.972Z,21.4
2018-06-10T05:34:48.253Z,21.4
2018-06-10T05:35:50.264Z,21.5
2018-06-10T05:36:52.257Z,21.5
2018-06-10T05:37:54.270Z,21.6
2018-06-10T05:38:56.273Z,21.6
2018-06-10T05:39:58.280Z,21.7
2018-06-10T05:41:00.278Z,21.6
2018-06-10T05:42:02.959Z,21.7
2018-06-10T05:43:04.971Z,21.8
2018-06-10T05:44:06.990Z,21.8
2018-06-10T05:45:12.044Z,21.9
2018-06-10T05:46:45.540Z,21.9
2018-06-10T05:47:47.589Z,21.9
2018-06-10T05:48:49.649Z,21.9
2018-06-10T05:49:52.060Z,21.9
2018-06-10T05:50:54.096Z,22
2018-06-10T05:51:56.133Z,22
2018-06-10T05:52:58.197Z,22
2018-06-10T05:54:00.247Z,22
2018-06-10T05:55:02.294Z,22.1
2018-06-10T05:56:04.345Z,22
2018-06-10T05:57:06.388Z,22.1
2018-06-10T05:58:08.746Z,22.1
2018-06-10T05:59:11.478Z,22.1
2018-06-10T06:00:13.520Z,22.1
2018-06-10T06:01:15.578Z,22.1
2018-06-10T06:02:17.626Z,22.2
2018-06-10T06:03:20.262Z,22.2
2018-06-10T06:04:22.313Z,22.1
2018-06-10T06:05:24.350Z,22.1
2018-06-10T06:06:26.403Z,22.2
2018-06-10T06:07:28.455Z,22.3
2018-06-10T06:08:30.889Z,22.3
2018-06-10T06:09:32.940Z,22.3
2018-06-10T06:10:34.991Z,22.3
2018-06-10T06:11:37.034Z,22.4
2018-06-10T06:12:39.080Z,22.4
2018-06-10T06:13:41.132Z,22.4
2018-06-10T06:14:43.186Z,22.5
2018-06-10T06:15:45.232Z,22.6
2018-06-10T06:16:47.282Z,22.6
2018-06-10T06:17:49.342Z,22.7
2018-06-10T06:18:51.383Z,22.8
2018-06-10T06:19:53.424Z,22.8
2018-06-10T06:20:55.471Z,22.8
2018-06-10T06:21:57.531Z,22.7
2018-06-10T06:22:59.868Z,22.8
2018-06-10T06:24:02.190Z,22.9
2018-06-10T06:25:04.249Z,22.9
2018-06-10T06:26:06.297Z,22.9
2018-06-10T06:27:08.341Z,22.9
2018-06-10T06:28:10.392Z,23
2018-06-10T06:29:12.832Z,23
2018-06-10T06:30:14.886Z,23.1
2018-06-10T06:31:16.930Z,23.2
2018-06-10T06:32:18.978Z,23.2
2018-06-10T06:33:21.497Z,23.2
2018-06-10T06:34:23.487Z,23.3
2018-06-10T06:35:25.538Z,23.4
2018-06-10T06:36:28.174Z,23.4
2018-06-10T06:37:30.236Z,23.5
2018-06-10T06:38:32.662Z,23.5
2018-06-10T06:39:34.720Z,23.6
2018-06-10T06:40:36.768Z,23.7
2018-06-10T06:41:39.209Z,23.8
2018-06-10T06:42:41.263Z,23.9
2018-06-10T06:43:43.310Z,23.8
2018-06-10T06:44:45.369Z,23.8
2018-06-10T06:45:47.720Z,23.9
2018-06-10T06:46:50.064Z,24
2018-06-10T06:47:52.135Z,24
2018-06-10T06:48:54.178Z,24.1
2018-06-10T06:49:56.230Z,24.2
2018-06-10T06:50:58.290Z,24.2
2018-06-10T06:52:00.346Z,24.3
2018-06-10T06:53:02.708Z,24.4
2018-06-10T06:54:04.763Z,24.4
2018-06-10T06:55:06.809Z,24.4
2018-06-10T06:56:08.867Z,24.5
2018-06-10T06:57:11.290Z,24.6
2018-06-10T06:58:13.345Z,24.5
2018-06-10T06:59:15.405Z,24.6
2018-06-10T07:00:17.460Z,24.7
2018-06-10T07:01:19.511Z,24.8
2018-06-10T07:02:21.563Z,24.8
2018-06-10T07:03:23.611Z,24.8
2018-06-10T07:04:25.664Z,24.8
2018-06-10T07:05:27.720Z,24.9
2018-06-10T07:06:29.782Z,24.9
2018-06-10T07:07:31.840Z,24.9
2018-06-10T07:08:33.885Z,25
2018-06-10T07:09:35.941Z,25
2018-06-10T07:10:37.992Z,25
2018-06-10T07:11:40.053Z,25
2018-06-10T07:12:42.106Z,25.1
2018-06-10T07:13:44.461Z,25.2
2018-06-10T07:14:46.516Z,25.2
2018-06-10T07:15:48.870Z,25.3
2018-06-10T07:16:50.926Z,25.4
2018-06-10T07:17:52.973Z,25.3
2018-06-10T07:18:55.017Z,25.2
2018-06-10T07:19:57.435Z,25.3
2018-06-10T07:20:59.436Z,25.5
2018-06-10T07:22:01.490Z,25.5
2018-06-10T07:23:03.549Z,25.6
2018-06-10T07:24:05.601Z,25.6
2018-06-10T07:25:07.659Z,25.6
2018-06-10T07:26:09.704Z,25.7
2018-06-10T07:27:11.756Z,25.6
2018-06-10T07:28:14.111Z,25.6
2018-06-10T07:29:16.162Z,25.7
2018-06-10T07:30:18.491Z,25.8
2018-06-10T07:31:20.550Z,25.7
2018-06-10T07:32:22.592Z,25.7
2018-06-10T07:33:24.660Z,25.8
2018-06-10T07:34:26.700Z,26
2018-06-10T07:35:28.759Z,26
2018-06-10T07:36:31.488Z,26.1
2018-06-10T07:37:33.830Z,26.1
2018-06-10T07:38:35.890Z,26.1
2018-06-10T07:39:37.944Z,26.3
2018-06-10T07:40:40.077Z,26.3
2018-06-10T07:41:42.054Z,26.4
2018-06-10T07:42:44.107Z,26.4
2018-06-10T07:43:46.165Z,26.5
2018-06-10T07:44:48.211Z,26.6
2018-06-10T07:45:50.262Z,26.6
2018-06-10T07:46:53.297Z,26.5
2018-06-10T07:47:55.344Z,26.7
2018-06-10T07:48:57.791Z,26.5
2018-06-10T07:49:59.838Z,26.5
2018-06-10T07:51:01.906Z,26.8
2018-06-10T07:52:04.558Z,26.9
2018-06-10T07:53:06.898Z,27
2018-06-10T07:54:08.939Z,26.9
2018-06-10T07:55:11.580Z,27
2018-06-10T07:56:14.219Z,27.1
2018-06-10T07:57:16.561Z,27.2
2018-06-10T07:58:18.900Z,27.3
2018-06-10T07:59:20.960Z,27.4
2018-06-10T08:00:23.011Z,27.4
2018-06-10T08:01:25.074Z,27.4
2018-06-10T08:02:27.130Z,27.5
2018-06-10T08:03:29.203Z,27.6
2018-06-10T08:04:31.255Z,27.5
2018-06-10T08:05:33.312Z,27.4
2018-06-10T08:06:35.373Z,27.4
2018-06-10T08:07:37.418Z,27.6
2018-06-10T08:08:39.476Z,27.6
2018-06-10T08:09:41.524Z,27.6
2018-06-10T08:10:43.585Z,27.7
2018-06-10T08:11:46.039Z,27.8
2018-06-10T08:12:48.067Z,27.7
2018-06-10T08:13:50.516Z,27.8
2018-06-10T08:14:52.588Z,27.8
2018-06-10T08:15:54.640Z,27.9
2018-06-10T08:16:56.694Z,27.9
2018-06-10T08:17:58.755Z,28
2018-06-10T08:19:01.112Z,28
2018-06-10T08:20:03.371Z,27.8
2018-06-10T08:21:05.426Z,27.8
2018-06-10T08:22:07.487Z,27.7
2018-06-10T08:23:09.543Z,27.9
2018-06-10T08:24:11.599Z,27.9
2018-06-10T08:25:13.651Z,28
2018-06-10T08:26:15.992Z,28.1
2018-06-10T08:27:18.726Z,28.3
2018-06-10T08:28:21.632Z,28.4
2018-06-10T08:29:23.679Z,28.4
2018-06-10T08:30:25.736Z,28.4
2018-06-10T08:31:27.796Z,28.4
2018-06-10T08:32:29.843Z,28.3
2018-06-10T08:33:31.907Z,28.3
2018-06-10T08:34:34.238Z,28.1
2018-06-10T08:35:36.305Z,28.2
2018-06-10T08:36:38.373Z,28.5
2018-06-10T08:37:40.416Z,28.6
2018-06-10T08:38:42.470Z,28.7
2018-06-10T08:39:44.819Z,28.9
2018-06-10T08:40:46.880Z,28.9
2018-06-10T08:41:48.941Z,28.9
2018-06-10T08:42:50.984Z,29
2018-06-10T08:43:53.159Z,28.8
2018-06-10T08:44:55.112Z,28.6
2018-06-10T08:45:57.472Z,28.7
2018-06-10T08:46:59.541Z,28.7
2018-06-10T08:48:01.877Z,29.1
2018-06-10T08:49:04.328Z,29.3
2018-06-10T08:50:06.385Z,29.5
2018-06-10T08:51:08.440Z,29.5
2018-06-10T08:52:10.489Z,29.5
2018-06-10T08:53:12.532Z,29.4
2018-06-10T08:54:14.585Z,29.5
2018-06-10T08:55:16.658Z,29.7
2018-06-10T08:56:18.707Z,30.1
2018-06-10T08:57:20.790Z,30.3
2018-06-10T08:58:22.819Z,29.8
2018-06-10T08:59:25.254Z,29.9
2018-06-10T09:00:27.604Z,29.9
2018-06-10T09:01:29.654Z,30.1
2018-06-10T09:02:31.724Z,29.8
2018-06-10T09:03:34.182Z,29.9
2018-06-10T09:04:36.221Z,29.8
2018-06-10T09:05:38.275Z,29.5
2018-06-10T09:06:40.337Z,29.4
2018-06-10T09:07:42.400Z,29.4
2018-06-10T09:08:44.502Z,29.9
2018-06-10T09:09:46.501Z,30.1
2018-06-10T09:10:48.557Z,29.7
2018-06-10T09:11:50.928Z,30.1
2018-06-10T09:12:52.984Z,30.1
2018-06-10T09:13:55.049Z,30
2018-06-10T09:14:57.115Z,29.8
2018-06-10T09:15:59.177Z,30.2
2018-06-10T09:17:01.228Z,30.5
2018-06-10T09:18:03.280Z,30.4
2018-06-10T09:19:05.641Z,30.5
2018-06-10T09:20:07.702Z,31.1
2018-06-10T09:21:09.756Z,30.9
2018-06-10T09:22:11.870Z,31.1
2018-06-10T09:23:13.875Z,30.2
2018-06-10T09:24:15.944Z,30.5
2018-06-10T09:25:18.579Z,30.9
2018-06-10T09:26:20.657Z,31.4
2018-06-10T09:27:22.712Z,31.6
2018-06-10T09:28:25.467Z,31.1
2018-06-10T09:29:27.553Z,31
2018-06-10T09:30:29.897Z,30.9
2018-06-10T09:31:31.962Z,30.5
2018-06-10T09:32:34.295Z,30.8
2018-06-10T09:33:36.361Z,31.2
2018-06-10T09:34:38.432Z,31.1
2018-06-10T09:35:40.474Z,31.2
2018-06-10T09:36:42.544Z,31.1
2018-06-10T09:37:44.906Z,30.9
2018-06-10T09:38:46.969Z,30.9
2018-06-10T09:39:49.028Z,30.9
2018-06-10T09:40:51.375Z,30.9
2018-06-10T09:41:53.721Z,31.5
2018-06-10T09:42:55.787Z,31.5
2018-06-10T09:43:57.842Z,31.6
2018-06-10T09:44:59.904Z,31.2
2018-06-10T09:46:01.966Z,31.2
2018-06-10T09:47:04.031Z,31.3
2018-06-10T09:48:06.767Z,31.5
2018-06-10T09:49:08.826Z,31.8
2018-06-10T09:50:10.875Z,31.2
2018-06-10T09:51:13.259Z,31.2
2018-06-10T09:52:15.916Z,31.2
2018-06-10T09:53:17.973Z,31
2018-06-10T09:54:20.033Z,30.7
2018-06-10T09:55:22.193Z,31.1
2018-06-10T09:56:24.155Z,31.4
2018-06-10T09:57:26.208Z,31.3
2018-06-10T09:58:28.276Z,31.7
2018-06-10T09:59:30.340Z,32
2018-06-10T10:00:32.781Z,31.5
2018-06-10T10:01:34.852Z,31.1
2018-06-10T10:02:36.924Z,31.2
2018-06-10T10:03:38.983Z,31.5
2018-06-10T10:04:41.046Z,31.8
2018-06-10T10:05:43.122Z,31.8
2018-06-10T10:06:45.184Z,31.8
2018-06-10T10:07:47.636Z,31.5
2018-06-10T10:08:50.470Z,31.7
2018-06-10T10:09:52.474Z,31.5
2018-06-10T10:10:54.542Z,31.5
2018-06-10T10:11:56.600Z,31.5
2018-06-10T10:12:58.663Z,31.7
2018-06-10T10:14:00.724Z,31.5
2018-06-10T10:15:02.785Z,31.5
2018-06-10T10:16:05.410Z,31.7
2018-06-10T10:17:07.475Z,31.9
2018-06-10T10:18:09.843Z,31.6
2018-06-10T10:19:11.911Z,31.5
2018-06-10T10:20:13.968Z,30.9
2018-06-10T10:21:16.035Z,31.7
2018-06-10T10:22:18.378Z,32.1
2018-06-10T10:23:20.443Z,31.9
2018-06-10T10:24:22.503Z,31.8
2018-06-10T10:25:24.558Z,31.5
2018-06-10T10:26:26.621Z,31.4
2018-06-10T10:27:28.683Z,31.5
2018-06-10T10:28:30.751Z,31.4
2018-06-10T10:29:32.809Z,31.6
2018-06-10T10:30:34.859Z,31.8
2018-06-10T10:31:36.922Z,32
2018-06-10T10:32:38.988Z,31.7
2018-06-10T10:33:41.050Z,31.7
2018-06-10T10:34:43.109Z,31.9
2018-06-10T10:35:45.178Z,31.9
2018-06-10T10:36:47.529Z,31.6
2018-06-10T10:37:49.590Z,31.9
2018-06-10T10:38:51.652Z,31.7
2018-06-10T10:39:53.720Z,31.9
2018-06-10T10:40:55.789Z,31.6
2018-06-10T10:41:57.858Z,31.4
2018-06-10T10:42:59.931Z,31.6
2018-06-10T10:44:01.990Z,31.8
2018-06-10T10:45:04.346Z,31.8
2018-06-10T10:46:06.406Z,31.6
2018-06-10T10:47:08.475Z,31.8
2018-06-10T10:48:10.541Z,32
2018-06-10T10:49:12.591Z,31.7
2018-06-10T10:50:14.948Z,31.7
2018-06-10T10:51:17.012Z,31.8
2018-06-10T10:52:19.067Z,31.6
2018-06-10T10:53:21.121Z,31.7
2018-06-10T10:54:23.569Z,31.8
2018-06-10T10:55:25.641Z,31.7
2018-06-10T10:56:27.699Z,31.5
2018-06-10T10:57:29.766Z,31.3
2018-06-10T10:58:31.838Z,31.1
2018-06-10T10:59:33.888Z,31.2
2018-06-10T11:00:35.950Z,31.5
2018-06-10T11:01:38.008Z,31.9
2018-06-10T11:02:40.073Z,31.6
2018-06-10T11:03:42.127Z,31.6
2018-06-10T11:04:44.475Z,31.7
2018-06-10T11:05:46.805Z,31.6
2018-06-10T11:06:49.255Z,32
2018-06-10T11:07:51.706Z,32.2
2018-06-10T11:08:53.769Z,32.4
2018-06-10T11:09:56.134Z,32.2
2018-06-10T11:10:58.494Z,32
2018-06-10T11:12:00.565Z,32.3
2018-06-10T11:13:02.622Z,32.5
2018-06-10T11:14:04.677Z,32.5
2018-06-10T11:15:06.756Z,32.4
2018-06-10T11:16:08.815Z,32.4
2018-06-10T11:17:10.875Z,32.2
2018-06-10T11:18:12.943Z,32.2
2018-06-10T11:19:15.012Z,32.2
2018-06-10T11:20:17.071Z,32
2018-06-10T11:21:19.135Z,32.3
2018-06-10T11:22:21.193Z,32
2018-06-10T11:23:23.546Z,32.3
2018-06-10T11:24:25.994Z,32
2018-06-10T11:25:28.062Z,32.1
2018-06-10T11:26:30.119Z,32.2
2018-06-10T11:27:32.186Z,31.8
2018-06-10T11:28:34.245Z,31.4
2018-06-10T11:29:36.313Z,31.7
2018-06-10T11:30:38.374Z,31.5
2018-06-10T11:31:40.434Z,31.2
2018-06-10T11:32:42.495Z,31.1
2018-06-10T11:33:44.563Z,30.9
2018-06-10T11:34:46.931Z,30.6
2018-06-10T11:35:48.994Z,30.6
2018-06-10T11:36:51.359Z,30.7
2018-06-10T11:37:53.430Z,30.5
2018-06-10T11:38:55.486Z,30.3
2018-06-10T11:39:57.552Z,30
2018-06-10T11:40:59.613Z,29.8
2018-06-10T11:42:01.679Z,30
2018-06-10T11:43:03.731Z,29.9
2018-06-10T11:44:06.066Z,29.6
2018-06-10T11:45:08.131Z,29.5
2018-06-10T11:46:10.186Z,29.3
2018-06-10T11:47:12.245Z,29.1
2018-06-10T11:48:14.309Z,29
2018-06-10T11:49:16.366Z,29.1
2018-06-10T11:50:18.433Z,29
2018-06-10T11:51:21.075Z,28.8
2018-06-10T11:52:23.427Z,28.6
2018-06-10T11:53:25.493Z,28.5
2018-06-10T11:54:27.830Z,28.6
2018-06-10T11:55:29.883Z,28.5
2018-06-10T11:56:32.238Z,28.4
2018-06-10T11:57:34.281Z,28.3
2018-06-10T11:58:36.338Z,28.1
2018-06-10T11:59:38.395Z,28.1
2018-06-10T12:00:40.452Z,27.9
2018-06-10T12:01:42.513Z,28
2018-06-10T12:02:44.851Z,27.7
2018-06-10T12:03:47.249Z,27.4
2018-06-10T12:04:49.304Z,27.4
2018-06-10T12:05:51.352Z,27.2
2018-06-10T12:06:53.415Z,27.1
2018-06-10T12:07:55.507Z,26.9
2018-06-10T12:08:57.532Z,26.8
2018-06-10T12:09:59.579Z,26.7
2018-06-10T12:11:01.633Z,26.5
2018-06-10T12:12:03.700Z,26.5
2018-06-10T12:13:06.027Z,26.4
2018-06-10T12:14:08.467Z,26.4
2018-06-10T12:15:10.490Z,26.4
2018-06-10T12:16:12.810Z,26.3
2018-06-10T12:17:14.826Z,26
2018-06-10T12:18:17.140Z,25.9
2018-06-10T12:19:19.169Z,25.9
2018-06-10T12:20:21.302Z,25.9
2018-06-10T12:21:23.305Z,25.5
2018-06-10T12:22:25.639Z,25.4
2018-06-10T12:23:27.667Z,25.1
2018-06-10T12:24:29.689Z,25
2018-06-10T12:25:32.219Z,25
2018-06-10T12:26:34.242Z,24.8
2018-06-10T12:27:36.261Z,24.8
2018-06-10T12:28:38.283Z,24.8
2018-06-10T12:29:40.311Z,24.8
2018-06-10T12:30:42.329Z,24.5
2018-06-10T12:31:44.348Z,24.1
2018-06-10T12:32:46.366Z,24
2018-06-10T12:33:48.672Z,24.1
2018-06-10T12:34:50.685Z,24
2018-06-10T12:35:53.367Z,23.6
2018-06-10T12:36:55.379Z,23.6
2018-06-10T12:37:57.423Z,23.5
2018-06-10T12:38:59.866Z,23.4
2018-06-10T12:40:01.903Z,23.3
2018-06-10T12:41:04.006Z,23.2
2018-06-10T12:42:06.042Z,23.1
2018-06-10T12:43:08.755Z,22.8
2018-06-10T12:44:11.074Z,22.7
2018-06-10T12:45:13.160Z,22.3
2018-06-10T12:46:15.193Z,22.1
2018-06-10T12:47:17.197Z,21.8
2018-06-10T12:48:19.215Z,21.5
2018-06-10T12:49:21.316Z,21.4
2018-06-10T12:50:23.297Z,21.3
2018-06-10T12:51:26.475Z,21.3
2018-06-10T12:52:28.872Z,21.1
2018-06-10T12:53:30.885Z,21
2018-06-10T12:54:32.959Z,21.1
2018-06-10T12:55:35.597Z,21
2018-06-10T12:56:37.609Z,20.9
2018-06-10T12:57:39.910Z,21
2018-06-10T12:58:41.968Z,21
2018-06-10T12:59:44.216Z,20.9
2018-06-10T13:00:46.216Z,20.9
2018-06-10T13:01:48.220Z,20.9
2018-06-10T13:02:50.516Z,21
2018-06-10T13:03:52.519Z,20.9
2018-06-10T13:04:54.533Z,21
2018-06-10T13:05:56.540Z,21
2018-06-10T13:06:58.833Z,21
2018-06-10T13:08:00.832Z,21
2018-06-10T13:09:02.848Z,21.1
2018-06-10T13:10:05.131Z,21.1
2018-06-10T13:11:07.225Z,21.1
2018-06-10T13:12:09.540Z,21.1
2018-06-10T13:13:11.596Z,21.3
2018-06-10T13:14:13.925Z,21.1
2018-06-10T13:15:15.925Z,21.1
2018-06-10T13:16:17.917Z,21.1
2018-06-10T13:17:19.940Z,21.1
2018-06-10T13:18:21.939Z,21
2018-06-10T13:19:24.233Z,21.1
2018-06-10T13:20:26.241Z,21
2018-06-10T13:21:28.493Z,21
2018-06-10T13:22:39.821Z,21.1
2018-06-10T13:23:43.953Z,21.1
2018-06-10T13:24:46.302Z,21.2
2018-06-10T13:25:48.541Z,21
2018-06-10T13:26:51.303Z,20.8
2018-06-10T13:27:53.311Z,20.8
2018-06-10T13:28:56.014Z,20.9
2018-06-10T13:29:58.144Z,20.8
2018-06-10T13:31:00.509Z,20.9
2018-06-10T13:32:03.048Z,20.9
2018-06-10T13:33:05.047Z,20.8
2018-06-10T13:34:07.807Z,20.7
2018-06-10T13:35:14.597Z,20.8
2018-06-10T13:36:17.098Z,20.8
2018-06-10T13:37:19.104Z,20.7
2018-06-10T13:38:21.130Z,20.8
2018-06-10T13:39:24.676Z,21.1
2018-06-10T13:40:27.490Z,21.2
2018-06-10T13:41:30.539Z,21
2018-06-10T13:42:35.177Z,21.1
2018-06-10T13:43:38.888Z,21
2018-06-10T13:44:42.373Z,20.9
2018-06-10T13:45:45.109Z,21.1
2018-06-10T13:46:47.700Z,21
2018-06-10T13:47:51.126Z,21.1
2018-06-10T13:48:54.438Z,21.3
2018-06-10T13:49:59.492Z,21.3
2018-06-10T13:51:02.709Z,21.4
2018-06-10T13:52:07.673Z,21.5
2018-06-10T13:53:13.128Z,21.5
2018-06-10T13:54:16.146Z,21.6
2018-06-10T13:55:20.475Z,21.7
2018-06-10T13:56:23.940Z,21.6